Kohat Weather



Kohat's Current Weather

Temprature 24.04o few clouds

few clouds

Rain: 0 %

Min Temprature24.04o
Max Temprature24.04o
Humidity75
Wind Speed0.88 m/h
Sun Rise06:04:42
Sun Set18:06:36
Current Time: 26-Sep-2022 07:59:27
Lat/Lon: 33.582, 71.4493




Kohat's Geo Location



Kohat's Weather Forecast

Time Overall Temp Min Temp Max Temp Humidity Wind Speed Rain
26-Sep-2022 (Mon)
08:00:00 few clouds 24.040 24.040 24.610 75 0.88 m/h 0 %
11:00:00 few clouds 25.450 25.450 28.260 69 0.72 m/h 0 %
14:00:00 clear sky 28.770 28.770 31.140 53 1.03 m/h 0 %
17:00:00 clear sky 31.380 31.380 31.380 39 1.92 m/h 0 %
20:00:00 clear sky 28.980 28.980 28.980 50 0.71 m/h 0 %
23:00:00 clear sky 27.490 27.490 27.490 57 0.67 m/h 0 %
27-Sep-2022 (Tue)
02:00:00 clear sky 26.220 26.220 26.220 63 0.82 m/h 0 %
05:00:00 clear sky 25.110 25.110 25.110 67 0.93 m/h 0 %
08:00:00 clear sky 26.890 26.890 26.890 58 0.65 m/h 0 %
11:00:00 clear sky 30.130 30.130 30.130 46 0.95 m/h 0 %
14:00:00 clear sky 32.530 32.530 32.530 36 1.88 m/h 0 %
17:00:00 clear sky 32.760 32.760 32.760 35 2.26 m/h 0 %
20:00:00 clear sky 29.530 29.530 29.530 47 1.2 m/h 0 %
23:00:00 clear sky 27.770 27.770 27.770 55 1.76 m/h 0 %
28-Sep-2022 (Wed)
02:00:00 clear sky 26.550 26.550 26.550 60 1.38 m/h 0 %
05:00:00 clear sky 25.610 25.610 25.610 64 1.09 m/h 0 %
08:00:00 clear sky 27.100 27.100 27.100 57 1.08 m/h 0 %
11:00:00 clear sky 30.270 30.270 30.270 45 1.13 m/h 0 %
14:00:00 clear sky 32.620 32.620 32.620 37 1.99 m/h 0 %
17:00:00 light rain 30.750 30.750 30.750 45 1.53 m/h 17 %
20:00:00 few clouds 28.930 28.930 28.930 52 1.87 m/h 0 %
23:00:00 clear sky 27.570 27.570 27.570 57 1.8 m/h 0 %
29-Sep-2022 (Thu)
02:00:00 clear sky 26.270 26.270 26.270 62 1.79 m/h 0 %
05:00:00 light rain 24.570 24.570 24.570 69 1.47 m/h 36 %
08:00:00 light rain 26.290 26.290 26.290 60 1.29 m/h 11 %
11:00:00 clear sky 30.080 30.080 30.080 48 1.68 m/h 0 %
14:00:00 clear sky 32.400 32.400 32.400 39 2.83 m/h 0 %
17:00:00 clear sky 32.180 32.180 32.180 38 2.89 m/h 0 %
20:00:00 clear sky 29.420 29.420 29.420 48 2.01 m/h 0 %
23:00:00 clear sky 27.580 27.580 27.580 57 1.22 m/h 0 %
30-Sep-2022 (Fri)
02:00:00 clear sky 26.310 26.310 26.310 62 1.31 m/h 0 %
05:00:00 clear sky 25.410 25.410 25.410 65 1.22 m/h 0 %
08:00:00 clear sky 27.250 27.250 27.250 56 0.81 m/h 0 %
11:00:00 clear sky 30.640 30.640 30.640 44 1.52 m/h 0 %
14:00:00 clear sky 32.880 32.880 32.880 35 2.15 m/h 0 %
17:00:00 clear sky 32.720 32.720 32.720 34 2.73 m/h 0 %
20:00:00 clear sky 29.510 29.510 29.510 46 1.99 m/h 0 %
23:00:00 clear sky 27.830 27.830 27.830 54 1.45 m/h 0 %
01-Oct-2022 (Sat)
02:00:00 clear sky 26.630 26.630 26.630 58 1.3 m/h 0 %
05:00:00 clear sky 25.720 25.720 25.720 60 1.32 m/h 0 %

Famous Cities (61)